sensor_id;sensor_type;location;lat;lon;timestamp;P1;durP1;ratioP1;P2;durP2;ratioP2
56746;SDS011;42623;49.978;9.966;2024-03-22T00:00:02;12.87;;;6.93;;
56746;SDS011;42623;49.978;9.966;2024-03-22T00:00:12;11.68;;;6.90;;
56746;SDS011;42623;49.978;9.966;2024-03-22T00:00:22;10.43;;;6.47;;
56746;SDS011;42623;49.978;9.966;2024-03-22T00:00:33;9.80;;;6.33;;
56746;SDS011;42623;49.978;9.966;2024-03-22T00:00:43;11.93;;;6.30;;
56746;SDS011;42623;49.978;9.966;2024-03-22T00:00:53;11.02;;;6.03;;
56746;SDS011;42623;49.978;9.966;2024-03-22T00:01:03;11.30;;;5.87;;
56746;SDS011;42623;49.978;9.966;2024-03-22T00:01:13;9.50;;;5.43;;
56746;SDS011;42623;49.978;9.966;2024-03-22T00:01:23;10.80;;;6.10;;
56746;SDS011;42623;49.978;9.966;2024-03-22T00:01:33;11.13;;;6.40;;
56746;SDS011;42623;49.978;9.966;2024-03-22T00:01:44;12.70;;;6.95;;
56746;SDS011;42623;49.978;9.966;2024-03-22T00:01:54;12.60;;;6.87;;
56746;SDS011;42623;49.978;9.966;2024-03-22T00:02:04;12.13;;;6.90;;
56746;SDS011;42623;49.978;9.966;2024-03-22T00:02:15;10.77;;;6.40;;
56746;SDS011;42623;49.978;9.966;2024-03-22T00:02:25;11.07;;;6.40;;
56746;SDS011;42623;49.978;9.966;2024-03-22T00:02:35;11.50;;;6.50;;
56746;SDS011;42623;49.978;9.966;2024-03-22T00:02:45;11.43;;;6.57;;
56746;SDS011;42623;49.978;9.966;2024-03-22T00:02:55;11.77;;;6.67;;
56746;SDS011;42623;49.978;9.966;2024-03-22T00:03:06;11.70;;;6.90;;
56746;SDS011;42623;49.978;9.966;2024-03-22T00:03:16;12.03;;;7.27;;
56746;SDS011;42623;49.978;9.966;2024-03-22T00:03:26;12.03;;;7.30;;
56746;SDS011;42623;49.978;9.966;2024-03-22T00:03:36;13.35;;;7.25;;
56746;SDS011;42623;49.978;9.966;2024-03-22T00:03:46;13.17;;;7.57;;
56746;SDS011;42623;49.978;9.966;2024-03-22T00:03:57;13.47;;;7.47;;
56746;SDS011;42623;49.978;9.966;2024-03-22T00:04:07;11.63;;;7.03;;
56746;SDS011;42623;49.978;9.966;2024-03-22T00:04:17;10.77;;;6.20;;
56746;SDS011;42623;49.978;9.966;2024-03-22T00:04:27;10.90;;;6.25;;
56746;SDS011;42623;49.978;9.966;2024-03-22T00:04:37;11.97;;;6.80;;
56746;SDS011;42623;49.978;9.966;2024-03-22T00:04:47;11.93;;;7.07;;
56746;SDS011;42623;49.978;9.966;2024-03-22T00:04:57;11.10;;;6.97;;
56746;SDS011;42623;49.978;9.966;2024-03-22T00:05:08;11.10;;;6.77;;
56746;SDS011;42623;49.978;9.966;2024-03-22T00:05:18;11.53;;;6.63;;
56746;SDS011;42623;49.978;9.966;2024-03-22T00:05:28;12.03;;;6.53;;
56746;SDS011;42623;49.978;9.966;2024-03-22T00:05:38;12.23;;;6.47;;
56746;SDS011;42623;49.978;9.966;2024-03-22T00:05:48;12.60;;;6.82;;
56746;SDS011;42623;49.978;9.966;2024-03-22T00:05:59;11.77;;;6.80;;
56746;SDS011;42623;49.978;9.966;2024-03-22T00:06:09;11.73;;;7.03;;
56746;SDS011;42623;49.978;9.966;2024-03-22T00:06:19;11.47;;;7.00;;
56746;SDS011;42623;49.978;9.966;2024-03-22T00:06:29;11.73;;;6.93;;
56746;SDS011;42623;49.978;9.966;2024-03-22T00:06:41;11.17;;;6.50;;
56746;SDS011;42623;49.978;9.966;2024-03-22T00:06:51;11.10;;;6.35;;
56746;SDS011;42623;49.978;9.966;2024-03-22T00:07:01;11.02;;;6.75;;
56746;SDS011;42623;49.978;9.966;2024-03-22T00:07:12;11.63;;;7.32;;
56746;SDS011;42623;49.978;9.966;2024-03-22T00:07:23;11.60;;;7.17;;
56746;SDS011;42623;49.978;9.966;2024-03-22T00:07:33;11.07;;;6.80;;
56746;SDS011;42623;49.978;9.966;2024-03-22T00:07:43;11.50;;;6.78;;
56746;SDS011;42623;49.978;9.966;2024-03-22T00:07:53;11.97;;;6.90;;
56746;SDS011;42623;49.978;9.966;2024-03-22T00:08:03;12.23;;;7.00;;
56746;SDS011;42623;49.978;9.966;2024-03-22T00:08:13;11.17;;;6.77;;
56746;SDS011;42623;49.978;9.966;2024-03-22T00:08:24;11.40;;;7.03;;
56746;SDS011;42623;49.978;9.966;2024-03-22T00:08:34;10.70;;;6.77;;
56746;SDS011;42623;49.978;9.966;2024-03-22T00:08:45;11.98;;;6.75;;
56746;SDS011;42623;49.978;9.966;2024-03-22T00:08:55;12.63;;;6.63;;
56746;SDS011;42623;49.978;9.966;2024-03-22T00:09:05;12.90;;;6.57;;
56746;SDS011;42623;49.978;9.966;2024-03-22T00:09:15;11.67;;;6.43;;
56746;SDS011;42623;49.978;9.966;2024-03-22T00:09:26;11.30;;;6.80;;
56746;SDS011;42623;49.978;9.966;2024-03-22T00:09:36;11.33;;;7.03;;
56746;SDS011;42623;49.978;9.966;2024-03-22T00:09:46;10.50;;;6.53;;
56746;SDS011;42623;49.978;9.966;2024-03-22T00:09:56;10.17;;;6.47;;
56746;SDS011;42623;49.978;9.966;2024-03-22T00:10:06;10.27;;;6.70;;
56746;SDS011;42623;49.978;9.966;2024-03-22T00:10:17;10.93;;;7.17;;
56746;SDS011;42623;49.978;9.966;2024-03-22T00:10:27;11.30;;;6.93;;
56746;SDS011;42623;49.978;9.966;2024-03-22T00:10:37;12.33;;;7.07;;
56746;SDS011;42623;49.978;9.966;2024-03-22T00:10:47;12.30;;;7.25;;
56746;SDS011;42623;49.978;9.966;2024-03-22T00:10:58;11.70;;;7.20;;
56746;SDS011;42623;49.978;9.966;2024-03-22T00:11:08;11.32;;;7.00;;
56746;SDS011;42623;49.978;9.966;2024-03-22T00:11:18;12.03;;;7.13;;
56746;SDS011;42623;49.978;9.966;2024-03-22T00:11:28;12.97;;;6.97;;
56746;SDS011;42623;49.978;9.966;2024-03-22T00:11:39;12.27;;;6.90;;
56746;SDS011;42623;49.978;9.966;2024-03-22T00:11:49;11.40;;;6.53;;
56746;SDS011;42623;49.978;9.966;2024-03-22T00:11:59;10.63;;;6.33;;
56746;SDS011;42623;49.978;9.966;2024-03-22T00:12:09;12.77;;;6.53;;
56746;SDS011;42623;49.978;9.966;2024-03-22T00:12:19;11.63;;;6.30;;
56746;SDS011;42623;49.978;9.966;2024-03-22T00:12:30;12.23;;;6.57;;
56746;SDS011;42623;49.978;9.966;2024-03-22T00:12:40;11.53;;;6.30;;
56746;SDS011;42623;49.978;9.966;2024-03-22T00:12:50;12.35;;;5.82;;
56746;SDS011;42623;49.978;9.966;2024-03-22T00:13:00;11.90;;;5.60;;
56746;SDS011;42623;49.978;9.966;2024-03-22T00:13:11;12.23;;;6.93;;
56746;SDS011;42623;49.978;9.966;2024-03-22T00:13:21;12.53;;;7.57;;
56746;SDS011;42623;49.978;9.966;2024-03-22T00:13:31;12.53;;;8.20;;
56746;SDS011;42623;49.978;9.966;2024-03-22T00:13:41;11.13;;;6.63;;
56746;SDS011;42623;49.978;9.966;2024-03-22T00:13:51;12.63;;;6.82;;
56746;SDS011;42623;49.978;9.966;2024-03-22T00:14:02;12.97;;;6.37;;
56746;SDS011;42623;49.978;9.966;2024-03-22T00:14:12;12.63;;;6.23;;
56746;SDS011;42623;49.978;9.966;2024-03-22T00:14:22;10.35;;;5.82;;
56746;SDS011;42623;49.978;9.966;2024-03-22T00:14:32;9.87;;;5.60;;
56746;SDS011;42623;49.978;9.966;2024-03-22T00:14:42;10.17;;;5.87;;
56746;SDS011;42623;49.978;9.966;2024-03-22T00:14:53;10.50;;;6.20;;
56746;SDS011;42623;49.978;9.966;2024-03-22T00:15:04;10.55;;;6.53;;
56746;SDS011;42623;49.978;9.966;2024-03-22T00:15:15;11.93;;;6.67;;
56746;SDS011;42623;49.978;9.966;2024-03-22T00:15:25;12.10;;;6.63;;
56746;SDS011;42623;49.978;9.966;2024-03-22T00:15:35;11.93;;;6.43;;
56746;SDS011;42623;49.978;9.966;2024-03-22T00:15:45;11.07;;;6.73;;
56746;SDS011;42623;49.978;9.966;2024-03-22T00:15:55;10.57;;;6.33;;
56746;SDS011;42623;49.978;9.966;2024-03-22T00:16:05;10.70;;;6.40;;
56746;SDS011;42623;49.978;9.966;2024-03-22T00:16:16;9.88;;;5.72;;
56746;SDS011;42623;49.978;9.966;2024-03-22T00:16:26;10.77;;;6.30;;
56746;SDS011;42623;49.978;9.966;2024-03-22T00:16:36;11.13;;;6.40;;
56746;SDS011;42623;49.978;9.966;2024-03-22T00:16:46;11.73;;;7.13;;
56746;SDS011;42623;49.978;9.966;2024-03-22T00:16:56;11.80;;;7.30;;
56746;SDS011;42623;49.978;9.966;2024-03-22T00:17:07;12.93;;;7.47;;
56746;SDS011;42623;49.978;9.966;2024-03-22T00:17:17;13.37;;;7.50;;
56746;SDS011;42623;49.978;9.966;2024-03-22T00:17:27;12.57;;;7.00;;
56746;SDS011;42623;49.978;9.966;2024-03-22T00:17:37;11.23;;;6.68;;
56746;SDS011;42623;49.978;9.966;2024-03-22T00:17:47;10.73;;;6.33;;
56746;SDS011;42623;49.978;9.966;2024-03-22T00:17:57;10.47;;;6.33;;
56746;SDS011;42623;49.978;9.966;2024-03-22T00:18:07;11.27;;;6.77;;
56746;SDS011;42623;49.978;9.966;2024-03-22T00:18:18;10.80;;;6.53;;
56746;SDS011;42623;49.978;9.966;2024-03-22T00:18:28;11.33;;;6.97;;
56746;SDS011;42623;49.978;9.966;2024-03-22T00:18:38;10.77;;;6.93;;
56746;SDS011;42623;49.978;9.966;2024-03-22T00:18:48;12.27;;;7.37;;
56746;SDS011;42623;49.978;9.966;2024-03-22T00:18:58;13.13;;;7.33;;
56746;SDS011;42623;49.978;9.966;2024-03-22T00:19:08;12.40;;;6.43;;
56746;SDS011;42623;49.978;9.966;2024-03-22T00:19:18;11.60;;;6.33;;
56746;SDS011;42623;49.978;9.966;2024-03-22T00:19:29;10.73;;;6.43;;
56746;SDS011;42623;49.978;9.966;2024-03-22T00:19:39;10.93;;;6.97;;
56746;SDS011;42623;49.978;9.966;2024-03-22T00:19:49;10.77;;;7.00;;
56746;SDS011;42623;49.978;9.966;2024-03-22T00:20:02;10.90;;;6.93;;
56746;SDS011;42623;49.978;9.966;2024-03-22T00:20:12;12.68;;;7.30;;
56746;SDS011;42623;49.978;9.966;2024-03-22T00:20:22;12.30;;;6.77;;
56746;SDS011;42623;49.978;9.966;2024-03-22T00:20:32;11.13;;;6.43;;
56746;SDS011;42623;49.978;9.966;2024-03-22T00:20:43;9.70;;;5.83;;
56746;SDS011;42623;49.978;9.966;2024-03-22T00:20:53;10.53;;;6.20;;
56746;SDS011;42623;49.978;9.966;2024-03-22T00:21:03;12.77;;;6.68;;
56746;SDS011;42623;49.978;9.966;2024-03-22T00:21:13;12.73;;;6.97;;
56746;SDS011;42623;49.978;9.966;2024-03-22T00:21:23;11.87;;;6.77;;
56746;SDS011;42623;49.978;9.966;2024-03-22T00:21:33;10.70;;;6.57;;
56746;SDS011;42623;49.978;9.966;2024-03-22T00:21:44;10.83;;;6.50;;
56746;SDS011;42623;49.978;9.966;2024-03-22T00:21:54;10.82;;;6.40;;
56746;SDS011;42623;49.978;9.966;2024-03-22T00:22:04;11.13;;;6.50;;
56746;SDS011;42623;49.978;9.966;2024-03-22T00:22:14;10.73;;;6.07;;
56746;SDS011;42623;49.978;9.966;2024-03-22T00:22:25;10.63;;;6.05;;
56746;SDS011;42623;49.978;9.966;2024-03-22T00:22:35;10.30;;;5.90;;
56746;SDS011;42623;49.978;9.966;2024-03-22T00:22:45;10.70;;;6.37;;
56746;SDS011;42623;49.978;9.966;2024-03-22T00:22:55;10.43;;;6.20;;
56746;SDS011;42623;49.978;9.966;2024-03-22T00:23:05;10.40;;;6.77;;
56746;SDS011;42623;49.978;9.966;2024-03-22T00:23:16;10.37;;;6.87;;
56746;SDS011;42623;49.978;9.966;2024-03-22T00:23:26;10.13;;;7.23;;
56746;SDS011;42623;49.978;9.966;2024-03-22T00:23:36;9.73;;;6.80;;
56746;SDS011;42623;49.978;9.966;2024-03-22T00:23:46;10.37;;;6.87;;
56746;SDS011;42623;49.978;9.966;2024-03-22T00:23:57;11.20;;;6.63;;
56746;SDS011;42623;49.978;9.966;2024-03-22T00:24:07;11.97;;;6.93;;
56746;SDS011;42623;49.978;9.966;2024-03-22T00:24:17;11.70;;;6.82;;
56746;SDS011;42623;49.978;9.966;2024-03-22T00:24:27;10.77;;;6.53;;
56746;SDS011;42623;49.978;9.966;2024-03-22T00:24:37;11.70;;;6.37;;
56746;SDS011;42623;49.978;9.966;2024-03-22T00:24:48;11.25;;;6.03;;
56746;SDS011;42623;49.978;9.966;2024-03-22T00:24:58;12.30;;;6.60;;
56746;SDS011;42623;49.978;9.966;2024-03-22T00:25:08;12.07;;;6.83;;
56746;SDS011;42623;49.978;9.966;2024-03-22T00:25:18;12.93;;;7.07;;
56746;SDS011;42623;49.978;9.966;2024-03-22T00:25:28;12.70;;;6.97;;
56746;SDS011;42623;49.978;9.966;2024-03-22T00:25:39;11.90;;;6.90;;
56746;SDS011;42623;49.978;9.966;2024-03-22T00:25:49;12.10;;;7.03;;
56746;SDS011;42623;49.978;9.966;2024-03-22T00:25:59;12.47;;;7.10;;
56746;SDS011;42623;49.978;9.966;2024-03-22T00:26:09;12.43;;;7.10;;
56746;SDS011;42623;49.978;9.966;2024-03-22T00:26:19;12.00;;;6.87;;
56746;SDS011;42623;49.978;9.966;2024-03-22T00:26:29;11.50;;;6.20;;
56746;SDS011;42623;49.978;9.966;2024-03-22T00:26:39;11.10;;;5.80;;
56746;SDS011;42623;49.978;9.966;2024-03-22T00:26:50;10.73;;;5.83;;
56746;SDS011;42623;49.978;9.966;2024-03-22T00:27:00;10.40;;;6.30;;
56746;SDS011;42623;49.978;9.966;2024-03-22T00:27:10;11.67;;;6.97;;
56746;SDS011;42623;49.978;9.966;2024-03-22T00:27:21;11.55;;;6.97;;
56746;SDS011;42623;49.978;9.966;2024-03-22T00:27:32;11.73;;;6.97;;
56746;SDS011;42623;49.978;9.966;2024-03-22T00:27:42;12.43;;;6.83;;
56746;SDS011;42623;49.978;9.966;2024-03-22T00:27:52;12.77;;;6.97;;
56746;SDS011;42623;49.978;9.966;2024-03-22T00:28:02;12.53;;;7.03;;
56746;SDS011;42623;49.978;9.966;2024-03-22T00:28:13;11.43;;;7.17;;
56746;SDS011;42623;49.978;9.966;2024-03-22T00:28:23;11.82;;;6.65;;
56746;SDS011;42623;49.978;9.966;2024-03-22T00:28:33;11.50;;;6.10;;
56746;SDS011;42623;49.978;9.966;2024-03-22T00:28:43;13.53;;;6.40;;
56746;SDS011;42623;49.978;9.966;2024-03-22T00:28:53;12.90;;;6.63;;
56746;SDS011;42623;49.978;9.966;2024-03-22T00:29:03;13.23;;;7.30;;
56746;SDS011;42623;49.978;9.966;2024-03-22T00:29:13;11.25;;;6.70;;
56746;SDS011;42623;49.978;9.966;2024-03-22T00:29:24;12.03;;;6.77;;
56746;SDS011;42623;49.978;9.966;2024-03-22T00:29:34;12.37;;;6.87;;
56746;SDS011;42623;49.978;9.966;2024-03-22T00:29:44;12.60;;;6.57;;
56746;SDS011;42623;49.978;9.966;2024-03-22T00:29:54;11.73;;;6.50;;
56746;SDS011;42623;49.978;9.966;2024-03-22T00:30:04;12.48;;;6.78;;
56746;SDS011;42623;49.978;9.966;2024-03-22T00:30:15;12.07;;;7.27;;
56746;SDS011;42623;49.978;9.966;2024-03-22T00:30:25;13.50;;;7.63;;
56746;SDS011;42623;49.978;9.966;2024-03-22T00:30:35;12.17;;;7.03;;
56746;SDS011;42623;49.978;9.966;2024-03-22T00:30:45;12.13;;;7.00;;
56746;SDS011;42623;49.978;9.966;2024-03-22T00:30:56;10.77;;;6.63;;
56746;SDS011;42623;49.978;9.966;2024-03-22T00:31:06;11.17;;;6.50;;
56746;SDS011;42623;49.978;9.966;2024-03-22T00:31:16;11.30;;;6.43;;
56746;SDS011;42623;49.978;9.966;2024-03-22T00:31:26;11.73;;;6.57;;
56746;SDS011;42623;49.978;9.966;2024-03-22T00:31:37;11.83;;;6.83;;
56746;SDS011;42623;49.978;9.966;2024-03-22T00:31:47;11.60;;;6.70;;
56746;SDS011;42623;49.978;9.966;2024-03-22T00:31:57;11.80;;;6.63;;
56746;SDS011;42623;49.978;9.966;2024-03-22T00:32:07;11.73;;;6.77;;
56746;SDS011;42623;49.978;9.966;2024-03-22T00:32:17;11.47;;;6.70;;
56746;SDS011;42623;49.978;9.966;2024-03-22T00:32:27;10.75;;;6.68;;
56746;SDS011;42623;49.978;9.966;2024-03-22T00:32:38;9.87;;;6.10;;
56746;SDS011;42623;49.978;9.966;2024-03-22T00:32:48;10.30;;;6.43;;
56746;SDS011;42623;49.978;9.966;2024-03-22T00:32:58;10.53;;;6.50;;
56746;SDS011;42623;49.978;9.966;2024-03-22T00:33:08;11.67;;;7.30;;
56746;SDS011;42623;49.978;9.966;2024-03-22T00:33:18;11.73;;;7.18;;
56746;SDS011;42623;49.978;9.966;2024-03-22T00:33:28;11.80;;;6.87;;
56746;SDS011;42623;49.978;9.966;2024-03-22T00:33:39;10.93;;;6.47;;
56746;SDS011;42623;49.978;9.966;2024-03-22T00:33:49;10.37;;;6.23;;
56746;SDS011;42623;49.978;9.966;2024-03-22T00:33:59;10.70;;;6.30;;
56746;SDS011;42623;49.978;9.966;2024-03-22T00:34:09;10.23;;;5.93;;
56746;SDS011;42623;49.978;9.966;2024-03-22T00:34:19;10.50;;;5.83;;
56746;SDS011;42623;49.978;9.966;2024-03-22T00:34:30;11.47;;;6.07;;
56746;SDS011;42623;49.978;9.966;2024-03-22T00:34:40;12.27;;;7.07;;
56746;SDS011;42623;49.978;9.966;2024-03-22T00:34:50;12.45;;;7.35;;
56746;SDS011;42623;49.978;9.966;2024-03-22T00:35:00;10.40;;;6.73;;
56746;SDS011;42623;49.978;9.966;2024-03-22T00:35:10;11.23;;;6.37;;
56746;SDS011;42623;49.978;9.966;2024-03-22T00:35:20;11.20;;;6.57;;
56746;SDS011;42623;49.978;9.966;2024-03-22T00:35:30;11.85;;;6.78;;
56746;SDS011;42623;49.978;9.966;2024-03-22T00:35:41;11.37;;;6.50;;
56746;SDS011;42623;49.978;9.966;2024-03-22T00:35:51;11.37;;;6.77;;
56746;SDS011;42623;49.978;9.966;2024-03-22T00:36:01;11.70;;;6.70;;
56746;SDS011;42623;49.978;9.966;2024-03-22T00:36:11;11.17;;;6.33;;
56746;SDS011;42623;49.978;9.966;2024-03-22T00:36:21;12.37;;;6.30;;
56746;SDS011;42623;49.978;9.966;2024-03-22T00:36:31;12.47;;;6.57;;
56746;SDS011;42623;49.978;9.966;2024-03-22T00:36:42;12.37;;;6.73;;
56746;SDS011;42623;49.978;9.966;2024-03-22T00:36:52;11.87;;;6.43;;
56746;SDS011;42623;49.978;9.966;2024-03-22T00:37:02;11.10;;;6.27;;
56746;SDS011;42623;49.978;9.966;2024-03-22T00:37:12;11.33;;;6.20;;
56746;SDS011;42623;49.978;9.966;2024-03-22T00:37:22;11.60;;;6.73;;
56746;SDS011;42623;49.978;9.966;2024-03-22T00:37:32;12.87;;;6.80;;
56746;SDS011;42623;49.978;9.966;2024-03-22T00:37:42;13.40;;;7.20;;
56746;SDS011;42623;49.978;9.966;2024-03-22T00:37:53;12.53;;;7.10;;
56746;SDS011;42623;49.978;9.966;2024-03-22T00:38:03;11.35;;;7.07;;
56746;SDS011;42623;49.978;9.966;2024-03-22T00:38:13;10.90;;;6.90;;
56746;SDS011;42623;49.978;9.966;2024-03-22T00:38:23;11.07;;;6.30;;
56746;SDS011;42623;49.978;9.966;2024-03-22T00:38:33;10.77;;;6.27;;
56746;SDS011;42623;49.978;9.966;2024-03-22T00:38:44;10.60;;;6.13;;
56746;SDS011;42623;49.978;9.966;2024-03-22T00:38:54;11.90;;;6.30;;
56746;SDS011;42623;49.978;9.966;2024-03-22T00:39:04;12.45;;;6.30;;
56746;SDS011;42623;49.978;9.966;2024-03-22T00:39:15;11.93;;;6.40;;
56746;SDS011;42623;49.978;9.966;2024-03-22T00:39:25;11.47;;;6.50;;
56746;SDS011;42623;49.978;9.966;2024-03-22T00:39:35;11.23;;;6.63;;
56746;SDS011;42623;49.978;9.966;2024-03-22T00:39:46;11.27;;;6.47;;
56746;SDS011;42623;49.978;9.966;2024-03-22T00:39:56;12.33;;;7.20;;
56746;SDS011;42623;49.978;9.966;2024-03-22T00:40:06;13.03;;;7.67;;
56746;SDS011;42623;49.978;9.966;2024-03-22T00:40:16;12.05;;;7.18;;
56746;SDS011;42623;49.978;9.966;2024-03-22T00:40:27;11.40;;;6.60;;
56746;SDS011;42623;49.978;9.966;2024-03-22T00:40:38;11.40;;;6.30;;
56746;SDS011;42623;49.978;9.966;2024-03-22T00:40:48;11.53;;;6.70;;
56746;SDS011;42623;49.978;9.966;2024-03-22T00:40:58;10.63;;;6.83;;
56746;SDS011;42623;49.978;9.966;2024-03-22T00:41:08;10.27;;;6.80;;
56746;SDS011;42623;49.978;9.966;2024-03-22T00:41:19;11.13;;;7.03;;
56746;SDS011;42623;49.978;9.966;2024-03-22T00:41:29;12.57;;;7.00;;
56746;SDS011;42623;49.978;9.966;2024-03-22T00:41:39;14.23;;;7.03;;
56746;SDS011;42623;49.978;9.966;2024-03-22T00:41:49;14.17;;;6.53;;
56746;SDS011;42623;49.978;9.966;2024-03-22T00:41:59;13.07;;;6.67;;
56746;SDS011;42623;49.978;9.966;2024-03-22T00:42:09;12.07;;;6.40;;
56746;SDS011;42623;49.978;9.966;2024-03-22T00:42:20;11.98;;;7.32;;
56746;SDS011;42623;49.978;9.966;2024-03-22T00:42:30;12.73;;;7.27;;
56746;SDS011;42623;49.978;9.966;2024-03-22T00:42:40;12.30;;;7.37;;
56746;SDS011;42623;49.978;9.966;2024-03-22T00:42:50;13.20;;;6.70;;
56746;SDS011;42623;49.978;9.966;2024-03-22T00:43:00;12.23;;;6.50;;
56746;SDS011;42623;49.978;9.966;2024-03-22T00:43:11;12.10;;;6.87;;
56746;SDS011;42623;49.978;9.966;2024-03-22T00:43:21;12.03;;;6.87;;
56746;SDS011;42623;49.978;9.966;2024-03-22T00:43:31;13.00;;;7.87;;
56746;SDS011;42623;49.978;9.966;2024-03-22T00:43:41;12.93;;;7.72;;
56746;SDS011;42623;49.978;9.966;2024-03-22T00:43:51;12.53;;;8.03;;
56746;SDS011;42623;49.978;9.966;2024-03-22T00:44:01;11.37;;;7.13;;
56746;SDS011;42623;49.978;9.966;2024-03-22T00:44:11;12.33;;;7.40;;
56746;SDS011;42623;49.978;9.966;2024-03-22T00:44:22;12.27;;;7.43;;
56746;SDS011;42623;49.978;9.966;2024-03-22T00:44:32;12.25;;;7.57;;
56746;SDS011;42623;49.978;9.966;2024-03-22T00:44:42;11.47;;;7.23;;
56746;SDS011;42623;49.978;9.966;2024-03-22T00:44:52;12.47;;;7.53;;
56746;SDS011;42623;49.978;9.966;2024-03-22T00:45:02;13.60;;;7.97;;
56746;SDS011;42623;49.978;9.966;2024-03-22T00:45:13;14.63;;;8.20;;
56746;SDS011;42623;49.978;9.966;2024-03-22T00:45:23;12.73;;;7.57;;
56746;SDS011;42623;49.978;9.966;2024-03-22T00:45:33;11.73;;;7.07;;
56746;SDS011;42623;49.978;9.966;2024-03-22T00:45:43;10.70;;;6.80;;
56746;SDS011;42623;49.978;9.966;2024-03-22T00:45:53;11.20;;;7.07;;
56746;SDS011;42623;49.978;9.966;2024-03-22T00:46:03;11.38;;;6.88;;
56746;SDS011;42623;49.978;9.966;2024-03-22T00:46:13;11.83;;;7.23;;
56746;SDS011;42623;49.978;9.966;2024-03-22T00:46:23;12.03;;;6.90;;
56746;SDS011;42623;49.978;9.966;2024-03-22T00:46:34;12.23;;;7.33;;
56746;SDS011;42623;49.978;9.966;2024-03-22T00:46:45;11.70;;;6.97;;
56746;SDS011;42623;49.978;9.966;2024-03-22T00:46:55;10.83;;;6.23;;
56746;SDS011;42623;49.978;9.966;2024-03-22T00:47:06;10.90;;;6.13;;
56746;SDS011;42623;49.978;9.966;2024-03-22T00:47:16;10.20;;;5.67;;
56746;SDS011;42623;49.978;9.966;2024-03-22T00:47:26;10.82;;;6.22;;
56746;SDS011;42623;49.978;9.966;2024-03-22T00:47:36;10.33;;;6.27;;
56746;SDS011;42623;49.978;9.966;2024-03-22T00:47:46;11.03;;;6.43;;
56746;SDS011;42623;49.978;9.966;2024-03-22T00:47:56;11.37;;;6.47;;
56746;SDS011;42623;49.978;9.966;2024-03-22T00:48:07;11.80;;;6.00;;
56746;SDS011;42623;49.978;9.966;2024-03-22T00:48:17;11.55;;;6.32;;
56746;SDS011;42623;49.978;9.966;2024-03-22T00:48:28;10.75;;;6.32;;
56746;SDS011;42623;49.978;9.966;2024-03-22T00:48:38;10.93;;;6.63;;
56746;SDS011;42623;49.978;9.966;2024-03-22T00:48:48;10.70;;;6.03;;
56746;SDS011;42623;49.978;9.966;2024-03-22T00:48:58;12.25;;;6.75;;
56746;SDS011;42623;49.978;9.966;2024-03-22T00:49:09;12.90;;;7.20;;
56746;SDS011;42623;49.978;9.966;2024-03-22T00:49:19;13.13;;;7.83;;
56746;SDS011;42623;49.978;9.966;2024-03-22T00:49:29;12.23;;;7.30;;
56746;SDS011;42623;49.978;9.966;2024-03-22T00:49:39;11.88;;;7.78;;
56746;SDS011;42623;49.978;9.966;2024-03-22T00:49:49;11.37;;;7.37;;
56746;SDS011;42623;49.978;9.966;2024-03-22T00:50:00;11.80;;;7.70;;
56746;SDS011;42623;49.978;9.966;2024-03-22T00:50:11;12.30;;;6.90;;
56746;SDS011;42623;49.978;9.966;2024-03-22T00:50:22;14.48;;;7.32;;
56746;SDS011;42623;49.978;9.966;2024-03-22T00:50:32;13.40;;;6.70;;
56746;SDS011;42623;49.978;9.966;2024-03-22T00:50:43;13.60;;;7.47;;
56746;SDS011;42623;49.978;9.966;2024-03-22T00:50:53;11.77;;;6.80;;
56746;SDS011;42623;49.978;9.966;2024-03-22T00:51:03;10.83;;;6.30;;
56746;SDS011;42623;49.978;9.966;2024-03-22T00:51:13;9.63;;;5.57;;
56746;SDS011;42623;49.978;9.966;2024-03-22T00:51:24;11.30;;;6.00;;
56746;SDS011;42623;49.978;9.966;2024-03-22T00:51:34;12.95;;;6.88;;
56746;SDS011;42623;49.978;9.966;2024-03-22T00:51:44;13.83;;;7.70;;
56746;SDS011;42623;49.978;9.966;2024-03-22T00:51:55;12.48;;;7.57;;
56746;SDS011;42623;49.978;9.966;2024-03-22T00:52:06;12.32;;;7.45;;
56746;SDS011;42623;49.978;9.966;2024-03-22T00:52:16;11.57;;;7.60;;
56746;SDS011;42623;49.978;9.966;2024-03-22T00:52:26;11.07;;;7.45;;
56746;SDS011;42623;49.978;9.966;2024-03-22T00:52:36;11.07;;;7.13;;
56746;SDS011;42623;49.978;9.966;2024-03-22T00:52:47;10.43;;;6.57;;
56746;SDS011;42623;49.978;9.966;2024-03-22T00:52:57;11.93;;;6.90;;
56746;SDS011;42623;49.978;9.966;2024-03-22T00:53:07;11.37;;;7.03;;
56746;SDS011;42623;49.978;9.966;2024-03-22T00:53:18;12.00;;;7.22;;
56746;SDS011;42623;49.978;9.966;2024-03-22T00:53:28;11.77;;;6.77;;
56746;SDS011;42623;49.978;9.966;2024-03-22T00:53:38;11.43;;;6.45;;
56746;SDS011;42623;49.978;9.966;2024-03-22T00:53:49;12.37;;;7.13;;
56746;SDS011;42623;49.978;9.966;2024-03-22T00:53:59;11.47;;;7.43;;
56746;SDS011;42623;49.978;9.966;2024-03-22T00:54:09;11.68;;;7.47;;
56746;SDS011;42623;49.978;9.966;2024-03-22T00:54:19;11.63;;;7.00;;
56746;SDS011;42623;49.978;9.966;2024-03-22T00:54:29;10.90;;;6.47;;
56746;SDS011;42623;49.978;9.966;2024-03-22T00:54:39;10.33;;;6.33;;
56746;SDS011;42623;49.978;9.966;2024-03-22T00:54:50;9.77;;;6.13;;
56746;SDS011;42623;49.978;9.966;2024-03-22T00:55:00;11.57;;;6.63;;
56746;SDS011;42623;49.978;9.966;2024-03-22T00:55:10;11.70;;;6.50;;
56746;SDS011;42623;49.978;9.966;2024-03-22T00:55:21;11.73;;;6.57;;
56746;SDS011;42623;49.978;9.966;2024-03-22T00:55:31;11.30;;;6.40;;
56746;SDS011;42623;49.978;9.966;2024-03-22T00:55:41;11.77;;;7.03;;
56746;SDS011;42623;49.978;9.966;2024-03-22T00:55:51;11.57;;;6.50;;
56746;SDS011;42623;49.978;9.966;2024-03-22T00:56:01;11.80;;;6.33;;
56746;SDS011;42623;49.978;9.966;2024-03-22T00:56:11;11.82;;;6.40;;
56746;SDS011;42623;49.978;9.966;2024-03-22T00:56:22;11.53;;;6.73;;
56746;SDS011;42623;49.978;9.966;2024-03-22T00:56:32;11.13;;;6.73;;
56746;SDS011;42623;49.978;9.966;2024-03-22T00:56:42;11.00;;;6.30;;
56746;SDS011;42623;49.978;9.966;2024-03-22T00:56:52;10.95;;;6.30;;
56746;SDS011;42623;49.978;9.966;2024-03-22T00:57:02;10.37;;;6.20;;
56746;SDS011;42623;49.978;9.966;2024-03-22T00:57:12;10.43;;;6.13;;
56746;SDS011;42623;49.978;9.966;2024-03-22T00:57:22;10.53;;;6.07;;
56746;SDS011;42623;49.978;9.966;2024-03-22T00:57:33;10.30;;;6.30;;
56746;SDS011;42623;49.978;9.966;2024-03-22T00:57:43;11.00;;;6.82;;
56746;SDS011;42623;49.978;9.966;2024-03-22T00:57:53;10.63;;;6.60;;
56746;SDS011;42623;49.978;9.966;2024-03-22T00:58:03;11.37;;;6.77;;
56746;SDS011;42623;49.978;9.966;2024-03-22T00:58:13;11.47;;;6.70;;
56746;SDS011;42623;49.978;9.966;2024-03-22T00:58:23;12.23;;;7.30;;
56746;SDS011;42623;49.978;9.966;2024-03-22T00:58:33;12.40;;;7.38;;
56746;SDS011;42623;49.978;9.966;2024-03-22T00:58:44;11.57;;;7.27;;
56746;SDS011;42623;49.978;9.966;2024-03-22T00:58:54;11.43;;;7.00;;
56746;SDS011;42623;49.978;9.966;2024-03-22T00:59:04;11.60;;;7.07;;
56746;SDS011;42623;49.978;9.966;2024-03-22T00:59:14;13.30;;;7.23;;
56746;SDS011;42623;49.978;9.966;2024-03-22T00:59:24;12.63;;;6.90;;
56746;SDS011;42623;49.978;9.966;2024-03-22T00:59:34;11.77;;;6.47;;
56746;SDS011;42623;49.978;9.966;2024-03-22T00:59:44;10.87;;;6.13;;
56746;SDS011;42623;49.978;9.966;2024-03-22T00:59:55;10.87;;;5.97;;
56746;SDS011;42623;49.978;9.966;2024-03-22T01:00:05;10.43;;;6.13;;
56746;SDS011;42623;49.978;9.966;2024-03-22T01:00:15;10.98;;;6.22;;
56746;SDS011;42623;49.978;9.966;2024-03-22T01:00:26;12.65;;;7.43;;
56746;SDS011;42623;49.978;9.966;2024-03-22T01:00:36;12.97;;;7.10;;
56746;SDS011;42623;49.978;9.966;2024-03-22T01:00:47;13.00;;;7.47;;